createdAt,value
2023-03-08T00:04:24.801Z,81.45
2023-03-08T00:09:27.050Z,82.21
2023-03-08T00:14:29.107Z,82.33
2023-03-08T00:19:31.599Z,82.40
2023-03-08T00:24:34.567Z,83.14
2023-03-08T00:29:36.760Z,82.96
2023-03-08T00:34:38.905Z,83.21
2023-03-08T00:39:41.695Z,83.69
2023-03-08T00:44:43.872Z,84.01
2023-03-08T00:49:47.114Z,84.37
2023-03-08T00:54:49.691Z,84.83
2023-03-08T00:59:51.660Z,84.62
2023-03-08T01:04:53.840Z,85.13
2023-03-08T01:09:56.729Z,85.46
2023-03-08T01:14:59.104Z,85.70
2023-03-08T01:20:01.199Z,86.38
2023-03-08T01:25:03.580Z,86.79
2023-03-08T01:30:07.284Z,87.50
2023-03-08T01:35:10.724Z,87.70
2023-03-08T01:40:16.437Z,87.73
2023-03-08T01:45:55.970Z,87.94
2023-03-08T01:50:59.476Z,88.16
2023-03-08T01:56:01.996Z,88.44
2023-03-08T02:01:04.034Z,88.56
2023-03-08T02:06:07.350Z,88.63
2023-03-08T02:11:10.799Z,88.79
2023-03-08T02:16:14.796Z,88.82
2023-03-08T02:21:17.079Z,88.37
2023-03-08T02:26:19.522Z,88.17
2023-03-08T02:31:21.684Z,87.89
2023-03-08T02:36:23.737Z,88.04
2023-03-08T02:41:25.878Z,88.28
2023-03-08T02:46:27.880Z,89.31
2023-03-08T02:51:30.401Z,89.50
2023-03-08T02:56:34.430Z,89.77
2023-03-08T03:01:37.113Z,91.39
2023-03-08T03:06:41.032Z,92.98
2023-03-08T03:11:43.921Z,94.77
2023-03-08T03:16:46.178Z,96.29
2023-03-08T03:21:48.458Z,96.92
2023-03-08T03:26:51.556Z,97.55
2023-03-08T03:31:54.890Z,98.43
2023-03-08T03:36:57.067Z,100.00
2023-03-08T03:41:59.489Z,100.00
2023-03-08T03:47:02.185Z,100.00
2023-03-08T03:52:05.515Z,100.00
2023-03-08T03:57:14.617Z,100.00
2023-03-08T04:02:18.016Z,100.00
2023-03-08T04:07:27.480Z,100.00
2023-03-08T04:12:35.343Z,100.00
2023-03-08T04:17:37.674Z,100.00
2023-03-08T04:22:39.890Z,100.00
2023-03-08T04:27:50.204Z,100.00
2023-03-08T04:32:52.460Z,100.00
2023-03-08T04:37:57.463Z,100.00
2023-03-08T04:43:02.383Z,100.00
2023-03-08T04:48:10.809Z,100.00
2023-03-08T04:53:13.421Z,100.00
2023-03-08T04:58:22.156Z,100.00
2023-03-08T05:03:24.459Z,100.00
2023-03-08T05:08:26.563Z,100.00
2023-03-08T05:13:31.648Z,100.00
2023-03-08T05:18:35.935Z,100.00
2023-03-08T05:23:38.614Z,100.00
2023-03-08T05:28:44.729Z,100.00
2023-03-08T05:33:51.150Z,100.00
2023-03-08T05:38:59.719Z,100.00
2023-03-08T05:44:10.482Z,100.00
2023-03-08T05:49:14.497Z,100.00
2023-03-08T05:54:16.932Z,100.00
2023-03-08T05:59:22.119Z,100.00
2023-03-08T06:04:24.923Z,100.00
2023-03-08T06:09:27.257Z,100.00
2023-03-08T06:14:31.426Z,100.00
2023-03-08T06:19:33.852Z,100.00
2023-03-08T06:24:36.476Z,100.00
2023-03-08T06:29:42.396Z,100.00
2023-03-08T06:34:47.477Z,100.00
2023-03-08T06:39:50.002Z,100.00
2023-03-08T06:44:52.682Z,100.00
2023-03-08T06:49:54.806Z,100.00
2023-03-08T06:54:57.037Z,100.00
2023-03-08T06:59:59.615Z,100.00
2023-03-08T07:05:01.611Z,100.00
2023-03-08T07:10:04.806Z,100.00
2023-03-08T07:15:08.486Z,100.00
2023-03-08T07:20:13.292Z,100.00
2023-03-08T07:25:17.564Z,100.00
2023-03-08T07:30:19.979Z,100.00
2023-03-08T07:35:22.205Z,100.00
2023-03-08T07:40:24.349Z,100.00
2023-03-08T07:45:26.599Z,100.00
2023-03-08T07:50:29.089Z,100.00
2023-03-08T07:55:31.175Z,100.00
2023-03-08T08:00:33.738Z,100.00
2023-03-08T08:05:36.870Z,100.00
2023-03-08T08:10:38.873Z,100.00
2023-03-08T08:15:41.429Z,100.00
2023-03-08T08:20:44.602Z,100.00
2023-03-08T08:25:51.282Z,100.00
2023-03-08T08:31:14.520Z,100.00
2023-03-08T08:36:18.895Z,100.00
2023-03-08T08:41:22.193Z,100.00
2023-03-08T08:46:24.675Z,100.00
2023-03-08T08:51:27.308Z,100.00
2023-03-08T08:56:30.515Z,100.00
2023-03-08T09:01:37.274Z,100.00
2023-03-08T09:06:39.940Z,100.00
2023-03-08T09:11:53.669Z,100.00
2023-03-08T09:16:57.748Z,100.00
2023-03-08T09:22:00.267Z,100.00
2023-03-08T09:27:05.623Z,100.00
2023-03-08T09:32:08.156Z,100.00
2023-03-08T09:37:11.947Z,100.00
2023-03-08T09:42:33.973Z,100.00
2023-03-08T09:47:50.154Z,100.00
2023-03-08T09:53:00.288Z,100.00
2023-03-08T09:58:06.456Z,100.00
2023-03-08T10:03:47.842Z,100.00
2023-03-08T10:08:53.318Z,100.00
2023-03-08T10:13:57.501Z,100.00
2023-03-08T10:19:20.576Z,97.17
2023-03-08T10:24:38.048Z,90.64
2023-03-08T10:29:39.919Z,88.68
2023-03-08T10:34:42.243Z,88.47
2023-03-08T10:39:53.534Z,86.54
2023-03-08T10:44:55.506Z,91.24
2023-03-08T10:50:28.096Z,85.28
2023-03-08T10:55:31.964Z,84.83
2023-03-08T11:00:37.279Z,85.00
2023-03-08T11:05:39.645Z,82.46
2023-03-08T11:10:41.973Z,77.34
2023-03-08T11:15:52.493Z,76.74
2023-03-08T11:21:03.509Z,78.57
2023-03-08T11:26:25.557Z,75.35
2023-03-08T11:31:40.615Z,76.06
2023-03-08T11:37:11.275Z,77.60
2023-03-08T11:42:19.431Z,73.23
2023-03-08T11:47:34.434Z,72.12
2023-03-08T11:52:40.198Z,70.63
2023-03-08T11:57:45.939Z,68.21
2023-03-08T12:02:49.258Z,69.06
2023-03-08T12:08:00.136Z,70.78
2023-03-08T12:13:05.305Z,70.74
2023-03-08T12:18:22.121Z,68.41
2023-03-08T12:23:29.956Z,66.80
2023-03-08T12:28:58.607Z,68.82
2023-03-08T12:34:00.888Z,69.53
2023-03-08T12:39:08.096Z,68.75
2023-03-08T12:44:42.635Z,68.91
2023-03-08T12:49:51.267Z,68.67
2023-03-08T12:55:31.354Z,68.25
2023-03-08T13:00:36.151Z,67.80
2023-03-08T13:05:39.847Z,66.60
2023-03-08T13:10:51.012Z,66.24
2023-03-08T13:16:08.207Z,67.67
2023-03-08T13:21:35.730Z,67.99
2023-03-08T13:27:08.572Z,68.30
2023-03-08T13:32:20.103Z,69.79
2023-03-08T13:37:24.446Z,69.78
2023-03-08T13:42:28.495Z,70.07
2023-03-08T13:47:34.565Z,70.38
2023-03-08T13:52:38.433Z,71.13
2023-03-08T13:57:42.397Z,70.51
2023-03-08T14:02:46.952Z,71.22
2023-03-08T14:08:03.591Z,71.13
2023-03-08T14:13:06.430Z,70.54
2023-03-08T14:18:19.905Z,70.65
2023-03-08T14:23:24.321Z,70.14
2023-03-08T14:28:40.916Z,70.43
2023-03-08T14:33:43.469Z,69.21
2023-03-08T14:38:49.582Z,68.42
2023-03-08T14:43:52.274Z,68.58
2023-03-08T14:48:59.452Z,68.93
2023-03-08T14:54:03.848Z,68.26
2023-03-08T14:59:06.200Z,69.08
2023-03-08T15:04:19.633Z,68.75
2023-03-08T15:09:22.722Z,69.99
2023-03-08T15:14:24.891Z,69.72
2023-03-08T15:19:27.699Z,69.69
2023-03-08T15:24:29.826Z,69.63
2023-03-08T15:29:33.863Z,70.85
2023-03-08T15:34:36.149Z,68.02
2023-03-08T15:39:38.148Z,71.88
2023-03-08T15:44:41.092Z,67.80
2023-03-08T15:49:43.488Z,67.01
2023-03-08T15:54:47.986Z,67.13
2023-03-08T15:59:51.254Z,67.31
2023-03-08T16:04:55.970Z,67.55
2023-03-08T16:09:58.359Z,67.78
2023-03-08T16:15:00.823Z,68.50
2023-03-08T16:20:06.556Z,69.84
2023-03-08T16:25:13.929Z,68.38
2023-03-08T16:30:21.440Z,69.33
2023-03-08T16:35:23.963Z,68.80
2023-03-08T16:40:31.359Z,68.76
2023-03-08T16:45:33.766Z,69.13
2023-03-08T16:50:36.333Z,68.87
2023-03-08T16:55:41.517Z,69.66
2023-03-08T17:00:45.074Z,69.78
2023-03-08T17:05:48.231Z,70.14
2023-03-08T17:10:50.360Z,69.26
2023-03-08T17:15:52.529Z,69.81
2023-03-08T17:20:54.732Z,69.58
2023-03-08T17:25:58.205Z,69.94
2023-03-08T17:31:00.989Z,70.71
2023-03-08T17:36:05.468Z,71.11
2023-03-08T17:41:14.543Z,72.17
2023-03-08T17:46:22.172Z,72.87
2023-03-08T17:51:28.340Z,72.75
2023-03-08T17:56:32.632Z,73.39
2023-03-08T18:01:34.844Z,73.98
2023-03-08T18:06:39.774Z,75.12
2023-03-08T18:11:42.502Z,76.30
2023-03-08T18:16:45.170Z,76.58
2023-03-08T18:21:54.778Z,77.62
2023-03-08T18:26:58.482Z,77.71
2023-03-08T18:32:01.383Z,78.16
2023-03-08T18:37:04.134Z,78.84
2023-03-08T18:42:06.318Z,78.27
2023-03-08T18:47:08.755Z,78.17
2023-03-08T18:52:11.747Z,78.41
2023-03-08T18:57:13.733Z,79.04
2023-03-08T19:02:21.412Z,80.04
2023-03-08T19:07:23.845Z,80.41
2023-03-08T19:12:26.217Z,81.87
2023-03-08T19:17:28.358Z,80.99
2023-03-08T19:22:30.750Z,82.21
2023-03-08T19:27:35.856Z,82.57
2023-03-08T19:32:37.885Z,83.09
2023-03-08T19:37:40.431Z,83.54
2023-03-08T19:42:42.444Z,83.67
2023-03-08T19:47:44.394Z,84.07
2023-03-08T19:52:46.727Z,85.15
2023-03-08T19:57:48.786Z,83.91
2023-03-08T20:02:50.890Z,83.88
2023-03-08T20:07:52.797Z,84.25
2023-03-08T20:12:54.990Z,84.47
2023-03-08T20:17:57.794Z,88.88
2023-03-08T20:23:00.822Z,86.82
2023-03-08T20:28:03.423Z,86.21
2023-03-08T20:33:05.935Z,86.65
2023-03-08T20:38:09.159Z,87.31
2023-03-08T20:43:11.367Z,87.33
2023-03-08T20:48:13.491Z,87.59
2023-03-08T20:53:15.957Z,89.24
2023-03-08T20:58:18.261Z,88.28
2023-03-08T21:03:20.307Z,88.13
2023-03-08T21:08:24.410Z,87.82
2023-03-08T21:13:26.541Z,86.85
2023-03-08T21:18:28.779Z,87.43
2023-03-08T21:23:30.840Z,87.32
2023-03-08T21:28:33.436Z,88.02
2023-03-08T21:33:35.406Z,88.91
2023-03-08T21:38:37.730Z,88.62
2023-03-08T21:43:39.877Z,89.08
2023-03-08T21:48:42.134Z,90.03
2023-03-08T21:53:44.903Z,90.02
2023-03-08T21:58:47.451Z,90.71
2023-03-08T22:03:50.599Z,90.83
2023-03-08T22:08:53.655Z,92.13
2023-03-08T22:13:57.651Z,93.04
2023-03-08T22:19:02.461Z,94.19
2023-03-08T22:24:05.118Z,95.21
2023-03-08T22:29:07.551Z,96.87
2023-03-08T22:34:12.000Z,97.44
2023-03-08T22:39:14.494Z,97.78
2023-03-08T22:44:16.897Z,97.97
2023-03-08T22:49:19.005Z,97.79
2023-03-08T22:54:22.874Z,97.72
2023-03-08T22:59:25.858Z,97.84
2023-03-08T23:04:28.113Z,97.70
2023-03-08T23:09:31.975Z,98.19
2023-03-08T23:14:36.060Z,98.71
2023-03-08T23:19:45.180Z,99.28
2023-03-08T23:24:47.209Z,98.98
2023-03-08T23:29:52.606Z,99.33
2023-03-08T23:34:54.749Z,99.70
2023-03-08T23:39:56.884Z,99.15
2023-03-08T23:44:59.126Z,98.79
2023-03-08T23:50:03.074Z,98.49
2023-03-08T23:55:05.909Z,97.98
